Terminal Aerodrome Forecast
Issued by NWS

Home | Current Version | Previous Version | Text Only | Print | Product List | Glossary On
Versions: 1 2 3 4 5 6 7 8 9 10 11 12 13 14 15 16 17 18
882
FTUS45 KRIW 282047 AAA
TAFCPR
TAF AMD
KCPR 282047Z 2821/2918 04011KT P6SM BKN020
     FM290200 06010KT P6SM VCSH SCT015 OVC025
     FM290600 07010KT P6SM BKN010 OVC040
     FM291500 08011KT P6SM BKN017 OVC045=

USA.gov is the U.S. government's official web portal to all federal, state and local government web resources and services.